PST,Max TemperatureF,Mean TemperatureF,Min TemperatureF,Max Dew PointF,MeanDew PointF,Min DewpointF,Max Humidity, Mean Humidity, Min Humidity, Max Sea Level PressureIn, Mean Sea Level PressureIn, Min Sea Level PressureIn, Max VisibilityMiles, Mean VisibilityMiles, Min VisibilityMiles, Max Wind SpeedMPH, Mean Wind SpeedMPH, Max Gust SpeedMPH,PrecipitationIn, CloudCover, Events, WindDirDegrees
2012-11-1,53,48,42,52,49,42,100,94,88,29.95,29.79,29.47,10,5,1,12,2,,0.16,8,Fog-Rain,90
2012-11-2,53,47,41,52,49,42,99,92,82,30.01,29.87,29.41,20,11,2,15,4,,0.28,8,Fog-Rain,99
2012-11-3,51,46,40,52,48,35,98,92,76,30.10,29.91,29.47,15,7,1,12,5,23,0.12,8,Rain,259
2012-11-4,57,54,51,54,52,50,94,91,82,30.20,30.14,30.08,15,4,1,12,6,17,0.00,8,Rain,110
2012-11-5,55,42,29,45,39,11,93,70,30,30.40,30.31,29.92,20,19,15,10,3,,0.00,7,Fog,311
2012-11-6,50,38,25,48,40,16,100,86,41,30.19,29.96,29.83,15,10,2,14,6,20,0.00,6,Fog-Rain,138
2012-11-7,50,34,18,41,35,15,100,80,47,30.31,30.12,30.03,20,19,15,12,3,,0.00,4,Rain,157
2012-11-8,48,38,28,41,35,27,100,77,54,30.23,29.95,29.89,20,18,15,13,7,,0.00,2,,289
2012-11-9,44,37,30,32,28,13,95,67,30,29.99,29.91,29.71,20,18,15,18,5,,0.00,1,,308
2012-11-10,41,34,26,32,26,11,100,69,32,30.35,30.16,29.99,20,17,15,20,6,,0.00,5,,275
2012-11-11,39,33,27,37,34,21,100,89,45,30.44,30.21,30.09,15,6,2,10,4,,0.00,8,Rain,152
2012-11-12,46,38,29,45,41,29,100,96,78,30.32,30.14,29.94,4,2,2,12,3,,0.00,8,Fog-Rain,281
2012-11-13,48,41,33,46,41,23,100,91,56,30.40,30.15,29.88,10,5,1,14,3,,0.08,8,Fog-Rain,241
2012-11-14,50,36,21,45,39,21,100,84,47,30.60,30.37,30.25,20,18,10,9,4,,0.00,5,Fog,257
2012-11-15,44,32,19,41,37,29,100,84,65,30.58,30.16,29.98,20,17,15,7,3,,0.00,6,Fog,336
2012-11-16,44,34,23,43,35,11,100,83,43,30.47,29.92,29.71,15,14,8,15,4,,0.00,7,Fog-Rain,110
2012-11-17,46,30,14,48,37,11,100,77,43,30.68,29.70,29.38,15,13,6,16,8,23,0.00,7,Fog-Rain,142
2012-11-18,46,32,18,45,39,17,100,89,56,30.74,29.77,29.36,15,10,5,20,9,33,0.00,8,Rain,127
2012-11-19,46,31,16,46,42,21,100,94,64,30.47,29.59,29.32,15,8,3,14,7,,0.00,7,Rain,133
2012-11-20,44,33,22,46,40,23,100,93,67,30.22,29.67,29.42,15,10,6,17,4,25,0.00,7,Fog-Rain,147
2012-11-21,42,32,22,43,37,31,100,93,65,30.26,29.94,29.60,20,18,10,6,2,,0.00,5,Fog-Rain,235
2012-11-22,44,35,26,41,37,30,100,88,72,30.35,30.22,29.81,15,14,10,16,6,,0.00,8,Fog-Rain,136
2012-11-23,48,42,36,46,42,32,100,90,44,30.06,29.95,29.49,12,7,0,16,5,,0.00,6,Fog-Rain,208
2012-11-24,44,38,32,43,37,30,100,91,76,30.27,30.06,29.12,20,19,15,10,4,,0.31,1,Fog,296
2012-11-25,39,33,27,39,32,17,100,87,52,30.38,30.13,29.10,20,20,20,18,6,,0.00,5,Fog,310
2012-11-26,41,31,18,37,29,9,100,80,47,30.23,30.11,29.55,20,20,20,15,5,,0.00,6,,312
2012-11-27,39,24,9,36,28,7,100,84,30,30.30,30.10,29.97,15,15,15,7,2,,0.00,8,,245
2012-11-28,44,28,13,45,35,14,100,91,39,30.27,29.76,29.61,20,13,6,8,2,,0.00,8,Rain,174
2012-11-29,50,29,8,48,38,-5,100,84,41,30.10,29.59,29.44,20,14,6,16,10,17,0.04,7,Rain,130
2012-11-30,50,28,5,48,38,-1,94,83,38,30.56,29.56,29.29,15,13,4,17,10,23,0.00,8,Rain,129